Aeroporto :
LOGIN :

Iscrizione | Disclaimer

   EN    FR    IT 

 










Sommario :    VFR   VFR Marginale   IFR   IFR Intensivo   IFR Molto Intensivo
Visibilità : 
Base nubi : 
>= 8 km
>= 3000ft
5 / 8 km
1000 / 3000 ft
1500m / 5 km
500 / 1000 ft
800 / 1500m
200 / 500 ft
< 800m
< 200 ft
Simboli :   Temporali  Nebbia  Neve Forte  Precipitazioni Forti  Vento > 20 kt
SIGMETs :   Varie  Temporali  Ghiacco  Turbolenza  Onda orograficha  Ceneri Vulcaniche






- Altitudine del aeroporto : 299 ft
- Codice IATA : EDM


LFRI - La Roche Sur Yon - Les Ajoncs

ULTIMO METAR :
  • 051430Z AUTO 22013G24KT 190V250 9999 BKN014 BKN020 OVC032 20/18 Q1008 TEMPO 4500 -SHRA BKN020TCU

METARs OBSOLETI :
  • 051400Z AUTO 22014KT 190V250 9999 BKN014 BKN023 OVC029 20/17 Q1009 TEMPO 4500 -SHRA BKN020TCU
  • 051330Z AUTO 22011KT 190V260 9999 BKN008 OVC012 19/18 Q1009 TEMPO 4500 -SHRA BKN020TCU
  • 051300Z AUTO 22010KT 190V260 2100 1200 R28/1400D RA BR BKN004 OVC008 18/18 Q1009 TEMPO 3000 -DZRA
  • 051230Z AUTO 20010KT 4700 -RA BR OVC005 18/17 Q1009 NOSIG
  • 051200Z AUTO 20011KT 170V230 9999 4200 -RA BKN010 BKN023 OVC030 18/17 Q1010 TEMPO 3000 -DZRA

TAF AMD TAF LFRI
Valido dal 05 a 12 ore il 06 a 12 ore UTC


051244Z 0512/0612 21012KT 8000 -RA BKN012
TEMPO 0512/0515 3000 -DZRA BKN004
BECMG 0514/0516 BKN020
TEMPO 0515/0524 4500 -SHRA BKN020TCU



MetMap, La meteo Aeronautica in un colpo d'occhio ! - Copyright ORBIFLY Dicembre 2007 - Disclaimer

ORBIFLY MET'MAP TEAM :

Programmazione e sviluppo : Alexandra Zaïnal
Concezione : Baudouin d'Aumeries
Aiuto per la programmazione : Marc-Olivier Méhu
Supporto tecnico e logistico : Manuel Goepfert
Aiuto per la traduzione : Arnaldo La Scala

Contatto : metmap@orbifly.com




FONTI E CREDITI :

   NOAA